createdAt,value
2018-07-31T00:01:21.869Z,26.50
2018-07-31T00:03:51.072Z,26.50
2018-07-31T00:06:23.893Z,26.50
2018-07-31T00:08:55.503Z,26.50
2018-07-31T00:11:24.632Z,26.40
2018-07-31T00:13:53.800Z,26.40
2018-07-31T00:16:22.770Z,26.40
2018-07-31T00:18:51.762Z,26.40
2018-07-31T00:21:20.781Z,26.30
2018-07-31T00:23:49.784Z,26.30
2018-07-31T00:26:18.741Z,26.30
2018-07-31T00:28:47.734Z,26.20
2018-07-31T00:31:17.273Z,26.20
2018-07-31T00:33:46.271Z,26.20
2018-07-31T00:36:15.243Z,26.10
2018-07-31T00:38:44.235Z,26.10
2018-07-31T00:41:14.229Z,26.10
2018-07-31T00:43:43.796Z,26.10
2018-07-31T00:46:12.763Z,26.00
2018-07-31T00:48:41.725Z,26.00
2018-07-31T00:51:10.718Z,25.90
2018-07-31T00:53:39.675Z,26.00
2018-07-31T00:56:08.700Z,26.00
2018-07-31T00:58:37.691Z,25.90
2018-07-31T01:01:06.931Z,25.90
2018-07-31T01:03:35.897Z,25.90
2018-07-31T01:08:33.478Z,25.80
2018-07-31T01:11:02.494Z,25.80
2018-07-31T01:13:31.447Z,25.80
2018-07-31T01:16:00.434Z,25.80
2018-07-31T01:18:29.408Z,25.70
2018-07-31T01:20:58.691Z,25.80
2018-07-31T01:25:56.316Z,25.70
2018-07-31T01:28:25.264Z,25.70
2018-07-31T01:30:54.226Z,25.70
2018-07-31T01:33:23.181Z,25.70
2018-07-31T01:35:52.175Z,25.70
2018-07-31T01:38:21.148Z,25.70
2018-07-31T01:40:50.142Z,25.70
2018-07-31T01:43:19.272Z,25.70
2018-07-31T01:45:48.268Z,25.70
2018-07-31T01:48:17.223Z,25.70
2018-07-31T01:50:46.486Z,25.60
2018-07-31T01:53:15.451Z,25.60
2018-07-31T01:55:44.444Z,25.60
2018-07-31T01:58:13.547Z,25.60
2018-07-31T02:00:42.507Z,25.60
2018-07-31T02:03:11.451Z,25.60
2018-07-31T02:05:40.451Z,25.50
2018-07-31T02:08:09.451Z,25.50
2018-07-31T02:10:38.772Z,25.50
2018-07-31T02:13:08.320Z,25.50
2018-07-31T02:15:38.227Z,25.40
2018-07-31T02:18:07.186Z,25.40
2018-07-31T02:23:04.851Z,25.40
2018-07-31T02:25:33.847Z,25.30
2018-07-31T02:28:02.855Z,25.30
2018-07-31T02:30:31.855Z,25.30
2018-07-31T02:33:00.843Z,25.20
2018-07-31T02:35:29.812Z,25.20
2018-07-31T02:37:58.819Z,25.20
2018-07-31T02:40:27.793Z,25.10
2018-07-31T02:42:56.780Z,25.20
2018-07-31T02:45:25.851Z,25.10
2018-07-31T02:48:00.774Z,25.10
2018-07-31T02:50:29.795Z,25.10
2018-07-31T02:52:58.795Z,25.10
2018-07-31T02:55:27.764Z,25.10
2018-07-31T02:57:56.713Z,25.10
2018-07-31T03:00:25.663Z,25.10
2018-07-31T03:02:54.634Z,25.00
2018-07-31T03:05:23.567Z,25.00
2018-07-31T03:07:52.550Z,25.00
2018-07-31T03:10:21.516Z,25.00
2018-07-31T03:12:50.577Z,25.00
2018-07-31T03:15:19.611Z,24.90
2018-07-31T03:17:48.662Z,24.90
2018-07-31T03:20:17.636Z,24.90
2018-07-31T03:22:46.632Z,24.90
2018-07-31T03:25:15.587Z,24.90
2018-07-31T03:27:44.556Z,24.80
2018-07-31T03:30:13.509Z,24.80
2018-07-31T03:32:42.502Z,24.70
2018-07-31T03:35:11.532Z,24.70
2018-07-31T03:37:40.524Z,24.70
2018-07-31T03:40:09.532Z,24.70
2018-07-31T03:42:38.513Z,24.70
2018-07-31T03:45:07.724Z,24.60
2018-07-31T03:47:36.680Z,24.60
2018-07-31T03:50:05.825Z,24.60
2018-07-31T03:52:34.743Z,24.50
2018-07-31T03:55:03.778Z,24.50
2018-07-31T03:57:32.780Z,24.50
2018-07-31T04:00:02.204Z,24.50
2018-07-31T04:02:31.202Z,24.50
2018-07-31T04:05:00.186Z,24.50
2018-07-31T04:07:29.495Z,24.50
2018-07-31T04:09:58.501Z,24.50
2018-07-31T04:12:27.531Z,24.50
2018-07-31T04:14:56.619Z,24.50
2018-07-31T04:17:25.615Z,24.50
2018-07-31T04:19:55.507Z,24.50
2018-07-31T04:22:24.475Z,24.50
2018-07-31T04:24:54.415Z,24.60
2018-07-31T04:27:23.439Z,24.60
2018-07-31T04:29:52.443Z,24.60
2018-07-31T04:32:22.057Z,24.70
2018-07-31T04:34:50.998Z,24.70
2018-07-31T04:37:19.969Z,24.70
2018-07-31T04:39:48.949Z,24.70
2018-07-31T04:42:17.938Z,24.70
2018-07-31T04:44:46.907Z,24.70
2018-07-31T04:47:15.906Z,24.70
2018-07-31T04:49:44.887Z,24.80
2018-07-31T04:52:13.893Z,24.80
2018-07-31T04:54:42.915Z,24.90
2018-07-31T04:57:11.885Z,24.90
2018-07-31T04:59:40.867Z,24.90
2018-07-31T05:02:10.011Z,25.00
2018-07-31T05:04:38.961Z,25.10
2018-07-31T05:07:07.959Z,25.10
2018-07-31T05:09:36.961Z,25.10
2018-07-31T05:12:05.987Z,25.20
2018-07-31T05:14:34.968Z,25.20
2018-07-31T05:17:03.987Z,25.30
2018-07-31T05:19:32.933Z,25.30
2018-07-31T05:22:02.034Z,25.40
2018-07-31T05:24:31.020Z,25.40
2018-07-31T05:27:00.009Z,25.50
2018-07-31T05:29:29.031Z,25.50
2018-07-31T05:31:58.042Z,25.50
2018-07-31T05:34:27.052Z,25.70
2018-07-31T05:36:56.119Z,25.70
2018-07-31T05:39:25.107Z,25.70
2018-07-31T05:41:54.083Z,25.80
2018-07-31T05:44:23.092Z,25.80
2018-07-31T05:46:52.120Z,25.90
2018-07-31T05:49:21.106Z,26.00
2018-07-31T05:51:50.155Z,26.10
2018-07-31T05:54:19.055Z,26.10
2018-07-31T05:56:48.047Z,26.20
2018-07-31T05:59:17.140Z,26.30
2018-07-31T06:01:46.137Z,26.40
2018-07-31T06:04:15.116Z,26.40
2018-07-31T06:06:44.104Z,26.50
2018-07-31T06:09:13.079Z,26.50
2018-07-31T06:11:42.050Z,26.60
2018-07-31T06:14:11.331Z,26.70
2018-07-31T06:16:40.307Z,26.80
2018-07-31T06:19:09.586Z,26.90
2018-07-31T06:21:38.584Z,26.90
2018-07-31T06:24:07.592Z,27.10
2018-07-31T06:29:05.186Z,27.20
2018-07-31T06:31:34.148Z,27.20
2018-07-31T06:34:03.992Z,27.30
2018-07-31T06:36:33.006Z,27.40
2018-07-31T06:39:02.199Z,27.40
2018-07-31T06:41:31.167Z,27.50
2018-07-31T06:44:00.131Z,27.60
2018-07-31T06:46:29.117Z,27.70
2018-07-31T06:48:58.090Z,27.80
2018-07-31T06:51:27.078Z,27.80
2018-07-31T06:53:56.071Z,27.90
2018-07-31T06:56:25.098Z,28.00
2018-07-31T06:58:54.366Z,28.00
2018-07-31T07:01:23.642Z,28.10
2018-07-31T07:03:52.741Z,28.20
2018-07-31T07:06:21.787Z,28.30
2018-07-31T07:08:50.731Z,28.30
2018-07-31T07:11:19.696Z,28.40
2018-07-31T07:13:48.668Z,28.50
2018-07-31T07:16:17.606Z,28.60
2018-07-31T07:18:46.681Z,28.70
2018-07-31T07:21:15.663Z,28.80
2018-07-31T07:23:44.668Z,28.80
2018-07-31T07:26:13.661Z,28.80
2018-07-31T07:28:42.599Z,28.90
2018-07-31T07:31:11.580Z,29.00
2018-07-31T07:33:40.588Z,29.10
2018-07-31T07:36:09.555Z,29.20
2018-07-31T07:38:38.590Z,29.30
2018-07-31T07:41:07.724Z,29.40
2018-07-31T07:43:36.701Z,29.50
2018-07-31T07:46:05.845Z,29.60
2018-07-31T07:48:34.812Z,29.70
2018-07-31T07:51:03.818Z,29.80
2018-07-31T07:53:32.775Z,29.80
2018-07-31T07:56:01.750Z,29.90
2018-07-31T07:58:30.759Z,30.00
2018-07-31T08:00:59.699Z,30.00
2018-07-31T08:03:28.724Z,30.10
2018-07-31T08:05:57.711Z,30.20
2018-07-31T08:08:26.694Z,30.30
2018-07-31T08:10:55.711Z,30.30
2018-07-31T08:13:24.755Z,30.30
2018-07-31T08:15:53.703Z,30.30
2018-07-31T08:18:22.735Z,30.40
2018-07-31T08:20:51.699Z,30.50
2018-07-31T08:23:20.671Z,30.50
2018-07-31T08:25:49.649Z,30.60
2018-07-31T08:28:18.611Z,30.70
2018-07-31T08:30:47.566Z,30.80
2018-07-31T08:33:16.555Z,30.90
2018-07-31T08:35:45.578Z,31.00
2018-07-31T08:38:14.528Z,31.00
2018-07-31T08:40:43.519Z,31.00
2018-07-31T08:43:12.491Z,31.00
2018-07-31T08:45:41.484Z,31.10
2018-07-31T08:48:10.496Z,31.20
2018-07-31T08:50:39.483Z,31.30
2018-07-31T08:53:08.443Z,31.40
2018-07-31T08:55:37.504Z,31.50
2018-07-31T08:58:06.480Z,31.50
2018-07-31T09:00:35.494Z,31.70
2018-07-31T09:03:04.494Z,31.80
2018-07-31T09:05:33.569Z,31.90
2018-07-31T09:08:02.495Z,32.00
2018-07-31T09:10:31.475Z,32.00
2018-07-31T09:13:00.432Z,32.10
2018-07-31T09:15:29.378Z,32.10
2018-07-31T09:17:58.408Z,32.20
2018-07-31T09:20:27.379Z,32.30
2018-07-31T09:22:56.335Z,32.40
2018-07-31T09:25:25.347Z,32.40
2018-07-31T09:27:54.367Z,32.50
2018-07-31T09:30:23.364Z,32.60
2018-07-31T09:32:57.772Z,32.70
2018-07-31T09:35:26.751Z,32.80
2018-07-31T09:37:55.688Z,32.90
2018-07-31T09:40:24.671Z,33.00
2018-07-31T09:42:53.668Z,33.10
2018-07-31T09:45:22.656Z,33.20
2018-07-31T09:47:51.621Z,33.20
2018-07-31T09:50:20.610Z,33.20
2018-07-31T09:55:18.248Z,33.40
2018-07-31T09:57:47.267Z,33.40
2018-07-31T10:00:23.476Z,33.40
2018-07-31T10:02:53.412Z,33.30
2018-07-31T10:05:22.530Z,33.30
2018-07-31T10:07:51.615Z,33.50
2018-07-31T10:10:20.577Z,33.70
2018-07-31T10:12:49.550Z,33.90
2018-07-31T10:15:18.749Z,34.10
2018-07-31T10:17:47.835Z,34.10
2018-07-31T10:20:16.915Z,34.20
2018-07-31T10:22:46.067Z,34.30
2018-07-31T10:25:15.052Z,34.40
2018-07-31T10:27:44.073Z,34.30
2018-07-31T10:30:13.049Z,34.30
2018-07-31T10:32:41.995Z,34.40
2018-07-31T10:35:11.394Z,34.40
2018-07-31T10:37:40.432Z,34.40
2018-07-31T10:40:09.437Z,34.40
2018-07-31T10:42:38.424Z,34.40
2018-07-31T10:45:07.355Z,34.40
2018-07-31T10:47:36.334Z,34.40
2018-07-31T10:50:05.299Z,34.50
2018-07-31T10:52:34.255Z,34.60
2018-07-31T10:55:03.299Z,34.70
2018-07-31T10:57:32.640Z,34.40
2018-07-31T11:00:01.696Z,34.50
2018-07-31T11:02:30.576Z,34.50
2018-07-31T11:04:59.583Z,34.50
2018-07-31T11:07:28.546Z,34.70
2018-07-31T11:09:57.544Z,34.80
2018-07-31T11:12:26.789Z,34.90
2018-07-31T11:14:55.775Z,34.90
2018-07-31T11:17:24.769Z,35.10
2018-07-31T11:19:53.835Z,35.30
2018-07-31T11:22:22.750Z,35.50
2018-07-31T11:24:51.747Z,35.70
2018-07-31T11:27:20.727Z,35.80
2018-07-31T11:29:49.691Z,35.90
2018-07-31T11:32:18.646Z,35.90
2018-07-31T11:34:47.679Z,36.10
2018-07-31T11:37:17.570Z,36.20
2018-07-31T11:39:46.627Z,36.40
2018-07-31T11:42:15.601Z,36.30
2018-07-31T11:44:44.595Z,36.30
2018-07-31T11:47:13.599Z,36.10
2018-07-31T11:49:42.587Z,36.20
2018-07-31T11:52:11.585Z,36.40
2018-07-31T11:54:40.561Z,36.50
2018-07-31T11:57:09.537Z,36.60
2018-07-31T11:59:38.531Z,36.80
2018-07-31T12:02:07.699Z,37.00
2018-07-31T12:04:36.705Z,37.30
2018-07-31T12:07:05.747Z,37.50
2018-07-31T12:09:34.747Z,37.40
2018-07-31T12:12:03.750Z,37.30
2018-07-31T12:14:32.710Z,37.10
2018-07-31T12:17:01.904Z,37.00
2018-07-31T12:21:59.617Z,36.80
2018-07-31T12:24:28.686Z,36.70
2018-07-31T12:26:57.774Z,36.90
2018-07-31T12:29:26.748Z,36.80
2018-07-31T12:31:55.744Z,36.70
2018-07-31T12:34:24.700Z,37.00
2018-07-31T12:36:53.696Z,37.30
2018-07-31T12:39:22.699Z,37.50
2018-07-31T12:41:51.659Z,37.60
2018-07-31T12:44:20.667Z,37.80
2018-07-31T12:46:49.724Z,38.10
2018-07-31T12:51:47.315Z,38.10
2018-07-31T12:54:16.343Z,37.60
2018-07-31T12:56:45.426Z,37.60
2018-07-31T12:59:14.508Z,37.80
2018-07-31T13:01:43.506Z,37.90
2018-07-31T13:04:12.491Z,38.00
2018-07-31T13:06:41.509Z,38.10
2018-07-31T13:09:10.486Z,38.10
2018-07-31T13:11:39.518Z,38.20
2018-07-31T13:14:08.482Z,38.40
2018-07-31T13:16:37.427Z,37.90
2018-07-31T13:21:35.019Z,38.00
2018-07-31T13:24:03.997Z,38.30
2018-07-31T13:26:32.978Z,38.30
2018-07-31T13:29:02.011Z,38.50
2018-07-31T13:31:31.170Z,38.60
2018-07-31T13:34:00.165Z,38.50
2018-07-31T13:36:29.435Z,38.40
2018-07-31T13:38:58.371Z,38.30
2018-07-31T13:41:27.358Z,37.90
2018-07-31T13:43:56.468Z,38.10
2018-07-31T13:46:25.319Z,38.30
2018-07-31T13:48:54.438Z,38.50
2018-07-31T13:51:23.491Z,38.70
2018-07-31T13:53:52.461Z,38.50
2018-07-31T13:56:21.593Z,38.50
2018-07-31T13:58:50.913Z,38.40
2018-07-31T14:01:19.835Z,37.60
2018-07-31T14:03:48.792Z,37.40
2018-07-31T14:06:18.083Z,37.50
2018-07-31T14:08:47.056Z,37.70
2018-07-31T14:11:16.333Z,37.70
2018-07-31T14:13:45.366Z,37.50
2018-07-31T14:16:14.323Z,37.00
2018-07-31T14:18:43.326Z,36.80
2018-07-31T14:21:12.323Z,36.80
2018-07-31T14:23:41.290Z,36.90
2018-07-31T14:26:10.371Z,37.10
2018-07-31T14:28:39.426Z,37.20
2018-07-31T14:31:08.481Z,37.40
2018-07-31T14:33:37.491Z,37.40
2018-07-31T14:36:06.489Z,37.30
2018-07-31T14:38:35.572Z,37.10
2018-07-31T14:41:04.595Z,36.80
2018-07-31T14:43:33.615Z,36.80
2018-07-31T14:46:02.634Z,36.50
2018-07-31T14:48:31.699Z,36.20
2018-07-31T14:51:00.676Z,36.20
2018-07-31T14:53:29.691Z,35.90
2018-07-31T14:55:58.675Z,35.90
2018-07-31T14:58:27.678Z,35.90
2018-07-31T15:00:56.632Z,35.90
2018-07-31T15:03:25.588Z,35.90
2018-07-31T15:05:54.999Z,35.90
2018-07-31T15:08:23.924Z,36.10
2018-07-31T15:10:52.929Z,36.40
2018-07-31T15:13:21.855Z,36.70
2018-07-31T15:15:50.874Z,36.70
2018-07-31T15:18:19.904Z,36.40
2018-07-31T15:20:49.253Z,36.10
2018-07-31T15:23:18.283Z,35.60
2018-07-31T15:25:47.275Z,35.30
2018-07-31T15:28:16.287Z,35.20
2018-07-31T15:30:45.280Z,35.20
2018-07-31T15:33:14.246Z,35.20
2018-07-31T15:35:43.813Z,35.30
2018-07-31T15:38:12.771Z,35.60
2018-07-31T15:40:41.776Z,36.00
2018-07-31T15:43:10.776Z,36.60
2018-07-31T15:45:39.782Z,37.20
2018-07-31T15:48:08.789Z,37.90
2018-07-31T15:53:06.588Z,39.20
2018-07-31T15:55:35.542Z,39.10
2018-07-31T15:58:04.551Z,38.90
2018-07-31T16:00:33.471Z,39.40
2018-07-31T16:03:02.485Z,40.20
2018-07-31T16:05:31.443Z,40.40
2018-07-31T16:08:00.436Z,40.20
2018-07-31T16:10:29.444Z,39.90
2018-07-31T16:12:58.403Z,39.60
2018-07-31T16:15:27.843Z,40.20
2018-07-31T16:17:56.828Z,40.70
2018-07-31T16:20:25.765Z,39.90
2018-07-31T16:22:55.009Z,39.80
2018-07-31T16:25:23.955Z,40.30
2018-07-31T16:27:52.940Z,40.30
2018-07-31T16:30:21.900Z,39.90
2018-07-31T16:32:50.871Z,39.70
2018-07-31T16:35:19.814Z,39.80
2018-07-31T16:37:48.842Z,40.00
2018-07-31T16:40:17.823Z,40.10
2018-07-31T16:42:46.884Z,40.40
2018-07-31T16:45:15.828Z,41.30
2018-07-31T16:47:44.789Z,41.60
2018-07-31T16:50:13.743Z,41.70
2018-07-31T16:52:42.735Z,40.90
2018-07-31T16:55:11.727Z,40.50
2018-07-31T16:57:41.691Z,40.20
2018-07-31T17:00:10.679Z,40.20
2018-07-31T17:02:39.664Z,40.20
2018-07-31T17:05:08.611Z,40.10
2018-07-31T17:07:37.629Z,40.10
2018-07-31T17:10:06.596Z,40.30
2018-07-31T17:12:35.556Z,40.60
2018-07-31T17:15:05.455Z,40.40
2018-07-31T17:17:34.490Z,40.50
2018-07-31T17:20:03.494Z,40.50
2018-07-31T17:22:32.487Z,40.30
2018-07-31T17:25:02.115Z,40.20
2018-07-31T17:27:31.722Z,40.10
2018-07-31T17:30:00.734Z,39.50
2018-07-31T17:32:30.618Z,39.50
2018-07-31T17:34:59.627Z,39.40
2018-07-31T17:37:30.115Z,39.40
2018-07-31T17:39:59.075Z,39.30
2018-07-31T17:42:28.939Z,39.10
2018-07-31T17:44:58.023Z,38.70
2018-07-31T17:47:27.849Z,37.50
2018-07-31T17:49:56.919Z,36.40
2018-07-31T17:52:25.903Z,35.70
2018-07-31T17:54:54.839Z,35.40
2018-07-31T17:57:25.649Z,35.20
2018-07-31T17:59:54.649Z,35.00
2018-07-31T18:02:24.528Z,34.80
2018-07-31T18:04:53.490Z,34.60
2018-07-31T18:07:22.439Z,34.40
2018-07-31T18:09:52.211Z,34.30
2018-07-31T18:12:21.199Z,34.10
2018-07-31T18:14:50.237Z,33.90
2018-07-31T18:17:19.175Z,33.60
2018-07-31T18:19:48.207Z,33.50
2018-07-31T18:22:17.264Z,33.30
2018-07-31T18:24:46.280Z,33.10
2018-07-31T18:27:15.280Z,33.00
2018-07-31T18:29:44.435Z,32.90
2018-07-31T18:32:13.381Z,32.70
2018-07-31T18:34:42.365Z,32.70
2018-07-31T18:37:12.158Z,32.60
2018-07-31T18:39:41.103Z,32.40
2018-07-31T18:42:10.213Z,32.30
2018-07-31T18:44:39.261Z,32.20
2018-07-31T18:47:08.219Z,32.00
2018-07-31T18:49:37.306Z,31.90
2018-07-31T18:52:06.312Z,31.80
2018-07-31T18:54:35.291Z,31.60
2018-07-31T18:57:04.410Z,31.60
2018-07-31T18:59:35.253Z,31.50
2018-07-31T19:02:04.255Z,31.40
2018-07-31T19:04:35.065Z,31.30
2018-07-31T19:07:04.047Z,31.20
2018-07-31T19:09:33.708Z,31.10
2018-07-31T19:12:02.656Z,31.00
2018-07-31T19:14:31.601Z,30.90
2018-07-31T19:17:00.553Z,30.70
2018-07-31T19:19:29.799Z,30.60
2018-07-31T19:21:59.107Z,30.50
2018-07-31T19:24:29.111Z,30.50
2018-07-31T19:26:58.115Z,30.40
2018-07-31T19:29:27.195Z,30.30
2018-07-31T19:31:56.205Z,30.20
2018-07-31T19:34:25.587Z,30.20
2018-07-31T19:36:54.583Z,30.10
2018-07-31T19:39:23.910Z,30.00
2018-07-31T19:41:52.993Z,29.90
2018-07-31T19:44:21.943Z,29.70
2018-07-31T19:46:51.800Z,29.60
2018-07-31T19:49:20.880Z,29.30
2018-07-31T19:51:49.861Z,29.20
2018-07-31T19:54:18.909Z,29.10
2018-07-31T19:56:47.937Z,28.80
2018-07-31T19:59:16.946Z,28.70
2018-07-31T20:01:45.929Z,28.40
2018-07-31T20:04:15.051Z,28.30
2018-07-31T20:06:44.124Z,28.20
2018-07-31T20:09:17.623Z,28.10
2018-07-31T20:11:46.582Z,28.00
2018-07-31T20:14:15.615Z,27.80
2018-07-31T20:16:46.015Z,27.60
2018-07-31T20:19:15.023Z,27.40
2018-07-31T20:21:44.103Z,27.40
2018-07-31T20:24:13.064Z,27.20
2018-07-31T20:26:42.946Z,27.20
2018-07-31T20:29:11.901Z,27.10
2018-07-31T20:31:43.415Z,26.90
2018-07-31T20:34:12.403Z,26.90
2018-07-31T20:36:42.173Z,26.80
2018-07-31T20:39:11.483Z,26.70
2018-07-31T20:41:41.785Z,26.60
2018-07-31T20:44:11.007Z,26.50
2018-07-31T20:46:40.495Z,26.40
2018-07-31T20:49:09.715Z,26.40
2018-07-31T20:51:39.979Z,26.30
2018-07-31T20:54:09.044Z,26.20
2018-07-31T20:56:38.095Z,26.20
2018-07-31T20:59:10.158Z,26.20
2018-07-31T21:01:39.192Z,26.10
2018-07-31T21:04:08.308Z,26.10
2018-07-31T21:06:37.291Z,26.00
2018-07-31T21:09:08.945Z,26.00
2018-07-31T21:11:37.968Z,25.90
2018-07-31T21:14:07.044Z,25.90
2018-07-31T21:16:36.043Z,25.80
2018-07-31T21:19:05.232Z,25.70
2018-07-31T21:21:34.336Z,25.70
2018-07-31T21:24:03.323Z,25.60
2018-07-31T21:26:32.634Z,25.50
2018-07-31T21:29:01.698Z,25.50
2018-07-31T21:31:31.524Z,25.40
2018-07-31T21:34:01.150Z,25.40
2018-07-31T21:36:30.125Z,25.30
2018-07-31T21:38:59.108Z,25.30
2018-07-31T21:41:28.115Z,25.30
2018-07-31T21:43:58.113Z,25.30
2018-07-31T21:46:27.163Z,25.20
2018-07-31T21:48:56.619Z,25.20
2018-07-31T21:51:25.623Z,25.10
2018-07-31T21:53:54.675Z,25.10
2018-07-31T21:56:23.695Z,25.10
2018-07-31T21:58:52.750Z,25.00
2018-07-31T22:01:21.968Z,24.90
2018-07-31T22:03:50.964Z,24.80
2018-07-31T22:06:19.982Z,24.70
2018-07-31T22:08:49.428Z,24.70
2018-07-31T22:11:19.561Z,24.70
2018-07-31T22:13:48.550Z,24.70
2018-07-31T22:16:17.571Z,24.60
2018-07-31T22:18:46.603Z,24.60
2018-07-31T22:21:15.773Z,24.50
2018-07-31T22:23:44.844Z,24.50
2018-07-31T22:26:13.892Z,24.40
2018-07-31T22:28:42.937Z,24.40
2018-07-31T22:31:11.924Z,24.40
2018-07-31T22:33:40.904Z,24.30
2018-07-31T22:36:10.523Z,24.30
2018-07-31T22:38:39.540Z,24.30
2018-07-31T22:41:09.101Z,24.30
2018-07-31T22:43:38.122Z,24.20
2018-07-31T22:46:07.579Z,24.20
2018-07-31T22:48:36.635Z,24.10
2018-07-31T22:51:05.662Z,24.10
2018-07-31T22:53:34.655Z,24.00
2018-07-31T22:56:03.741Z,23.90
2018-07-31T22:58:32.723Z,23.90
2018-07-31T23:01:01.695Z,23.90
2018-07-31T23:03:30.672Z,23.80
2018-07-31T23:05:59.692Z,23.80
2018-07-31T23:08:28.700Z,23.80
2018-07-31T23:10:57.723Z,23.70
2018-07-31T23:13:26.695Z,23.70
2018-07-31T23:15:55.720Z,23.60
2018-07-31T23:18:24.687Z,23.60
2018-07-31T23:20:53.678Z,23.60
2018-07-31T23:23:22.671Z,23.60
2018-07-31T23:25:51.674Z,23.50
2018-07-31T23:28:20.679Z,23.50
2018-07-31T23:30:49.720Z,23.40
2018-07-31T23:33:18.674Z,23.40
2018-07-31T23:35:47.807Z,23.20
2018-07-31T23:38:16.803Z,23.20
2018-07-31T23:43:14.423Z,23.00
2018-07-31T23:45:43.445Z,23.00
2018-07-31T23:48:12.402Z,23.00
2018-07-31T23:50:41.482Z,22.90
2018-07-31T23:53:10.387Z,22.90
2018-07-31T23:55:39.363Z,22.90
2018-07-31T23:58:08.366Z,22.90
